createdAt,value
2018-12-13T00:02:07.407Z,23.33
2018-12-13T00:04:35.708Z,22.60
2018-12-13T00:07:04.126Z,23.20
2018-12-13T00:09:32.440Z,20.77
2018-12-13T00:12:00.674Z,27.67
2018-12-13T00:14:28.876Z,26.00
2018-12-13T00:16:57.124Z,19.13
2018-12-13T00:19:25.446Z,24.77
2018-12-13T00:21:53.659Z,24.07
2018-12-13T00:24:21.904Z,24.27
2018-12-13T00:26:50.104Z,23.80
2018-12-13T00:29:18.316Z,25.70
2018-12-13T00:31:46.632Z,26.20
2018-12-13T00:34:14.826Z,22.10
2018-12-13T00:36:42.980Z,34.90
2018-12-13T00:39:11.280Z,27.80
2018-12-13T00:41:39.442Z,36.83
2018-12-13T00:44:07.592Z,27.33
2018-12-13T00:46:35.910Z,27.17
2018-12-13T00:49:04.222Z,27.77
2018-12-13T00:51:32.393Z,26.30
2018-12-13T00:54:00.590Z,25.60
2018-12-13T00:56:28.902Z,29.00
2018-12-13T00:58:57.150Z,29.93
2018-12-13T01:01:25.443Z,29.60
2018-12-13T01:03:53.620Z,30.43
2018-12-13T01:06:21.998Z,27.87
2018-12-13T01:08:50.231Z,25.83
2018-12-13T01:11:18.550Z,30.13
2018-12-13T01:13:46.709Z,28.50
2018-12-13T01:16:20.377Z,35.40
2018-12-13T01:18:48.683Z,30.40
2018-12-13T01:21:20.535Z,34.70
2018-12-13T01:23:47.133Z,30.47
2018-12-13T01:26:15.361Z,31.27
2018-12-13T01:28:43.614Z,34.43
2018-12-13T01:31:11.897Z,37.23
2018-12-13T01:33:40.141Z,37.37
2018-12-13T01:36:08.381Z,44.90
2018-12-13T01:38:36.618Z,37.40
2018-12-13T01:41:04.830Z,42.50
2018-12-13T01:43:33.154Z,42.97
2018-12-13T01:46:01.472Z,43.13
2018-12-13T01:48:29.772Z,43.40
2018-12-13T01:50:58.038Z,44.57
2018-12-13T01:53:26.794Z,45.80
2018-12-13T01:55:55.089Z,43.57
2018-12-13T01:58:23.263Z,42.83
2018-12-13T02:00:51.454Z,46.37
2018-12-13T02:03:19.674Z,50.00
2018-12-13T02:05:47.977Z,44.33
2018-12-13T02:08:16.162Z,48.73
2018-12-13T02:10:44.491Z,50.03
2018-12-13T02:13:12.782Z,52.53
2018-12-13T02:15:41.058Z,44.47
2018-12-13T02:18:09.284Z,53.17
2018-12-13T02:20:37.560Z,44.87
2018-12-13T02:23:05.914Z,43.90
2018-12-13T02:25:34.106Z,52.17
2018-12-13T02:28:02.352Z,43.97
2018-12-13T02:30:30.694Z,50.53
2018-12-13T02:32:59.040Z,53.50
2018-12-13T02:35:27.310Z,46.50
2018-12-13T02:37:55.666Z,46.40
2018-12-13T02:40:23.894Z,52.57
2018-12-13T02:42:52.157Z,56.03
2018-12-13T02:45:20.366Z,53.97
2018-12-13T02:47:48.571Z,63.07
2018-12-13T02:50:16.789Z,57.47
2018-12-13T02:52:45.023Z,53.93
2018-12-13T02:55:13.254Z,55.60
2018-12-13T02:57:48.161Z,54.67
2018-12-13T03:00:16.315Z,55.00
2018-12-13T03:02:44.628Z,54.63
2018-12-13T03:05:12.959Z,50.97
2018-12-13T03:07:41.362Z,53.97
2018-12-13T03:10:09.709Z,50.63
2018-12-13T03:12:38.000Z,53.87
2018-12-13T03:15:06.317Z,44.57
2018-12-13T03:17:34.658Z,42.20
2018-12-13T03:20:02.888Z,46.03
2018-12-13T03:22:31.123Z,37.63
2018-12-13T03:24:59.442Z,40.67
2018-12-13T03:27:27.723Z,44.23
2018-12-13T03:29:55.904Z,46.80
2018-12-13T03:32:24.068Z,49.87
2018-12-13T03:34:52.385Z,54.90
2018-12-13T03:37:21.094Z,46.33
2018-12-13T03:39:49.405Z,51.37
2018-12-13T03:42:17.706Z,44.60
2018-12-13T03:44:45.935Z,46.23
2018-12-13T03:47:14.151Z,43.37
2018-12-13T03:49:42.329Z,43.23
2018-12-13T03:52:10.571Z,45.67
2018-12-13T03:54:38.804Z,40.93
2018-12-13T03:57:07.156Z,40.00
2018-12-13T03:59:35.480Z,42.03
2018-12-13T04:02:03.771Z,41.87
2018-12-13T04:04:32.011Z,40.80
2018-12-13T04:07:00.313Z,38.77
2018-12-13T04:09:28.537Z,39.53
2018-12-13T04:11:56.776Z,37.00
2018-12-13T04:14:24.957Z,42.83
2018-12-13T04:16:53.227Z,41.30
2018-12-13T04:19:21.459Z,40.27
2018-12-13T04:21:49.637Z,37.70
2018-12-13T04:24:17.831Z,36.57
2018-12-13T04:26:46.077Z,35.60
2018-12-13T04:29:14.329Z,28.70
2018-12-13T04:31:42.513Z,35.87
2018-12-13T04:34:10.731Z,36.07
2018-12-13T04:36:38.967Z,33.77
2018-12-13T04:39:08.233Z,31.33
2018-12-13T04:41:36.387Z,28.37
2018-12-13T04:44:04.688Z,28.57
2018-12-13T04:46:32.949Z,31.70
2018-12-13T04:49:01.181Z,29.73
2018-12-13T04:51:29.519Z,30.20
2018-12-13T04:53:57.719Z,31.20
2018-12-13T04:56:25.981Z,29.00
2018-12-13T04:58:54.195Z,30.40
2018-12-13T05:01:22.365Z,32.77
2018-12-13T05:03:50.639Z,33.70
2018-12-13T05:06:18.897Z,33.43
2018-12-13T05:08:47.211Z,32.33
2018-12-13T05:11:15.415Z,30.77
2018-12-13T05:13:43.603Z,36.73
2018-12-13T05:16:11.852Z,39.80
2018-12-13T05:18:40.127Z,40.20
2018-12-13T05:21:08.409Z,41.10
2018-12-13T05:23:36.627Z,38.30
2018-12-13T05:26:04.843Z,42.57
2018-12-13T05:28:33.074Z,42.77
2018-12-13T05:31:01.417Z,33.20
2018-12-13T05:33:29.643Z,36.27
2018-12-13T05:35:57.923Z,36.43
2018-12-13T05:38:26.153Z,29.27
2018-12-13T05:40:54.401Z,39.80
2018-12-13T05:43:29.297Z,39.80
2018-12-13T05:45:57.518Z,29.87
2018-12-13T05:48:25.735Z,35.30
2018-12-13T05:50:53.927Z,29.10
2018-12-13T05:53:22.119Z,28.87
2018-12-13T05:55:50.307Z,33.90
2018-12-13T05:58:18.553Z,29.83
2018-12-13T06:00:46.802Z,35.00
2018-12-13T06:03:15.017Z,35.10
2018-12-13T06:05:43.311Z,32.30
2018-12-13T06:08:11.533Z,31.90
2018-12-13T06:10:39.700Z,33.07
2018-12-13T06:13:07.914Z,31.47
2018-12-13T06:15:36.126Z,31.03
2018-12-13T06:18:06.927Z,30.83
2018-12-13T06:20:34.666Z,31.30
2018-12-13T06:23:02.966Z,32.63
2018-12-13T06:25:31.212Z,37.50
2018-12-13T06:27:59.525Z,32.63
2018-12-13T06:30:27.862Z,31.47
2018-12-13T06:32:56.118Z,32.43
2018-12-13T06:35:24.400Z,30.27
2018-12-13T06:37:52.653Z,28.97
2018-12-13T06:40:20.906Z,33.17
2018-12-13T06:42:49.145Z,34.00
2018-12-13T06:45:17.436Z,30.70
2018-12-13T06:47:45.693Z,33.77
2018-12-13T06:50:13.913Z,34.20
2018-12-13T06:52:42.193Z,35.83
2018-12-13T06:55:10.440Z,38.23
2018-12-13T06:57:38.762Z,32.50
2018-12-13T07:00:08.255Z,33.67
2018-12-13T07:02:36.597Z,31.87
2018-12-13T07:05:04.987Z,34.07
2018-12-13T07:07:33.351Z,32.40
2018-12-13T07:10:01.557Z,31.60
2018-12-13T07:12:30.170Z,37.07
2018-12-13T07:14:58.345Z,45.83
2018-12-13T07:17:27.161Z,41.83
2018-12-13T07:19:55.880Z,43.33
2018-12-13T07:35:56.064Z,42.27
2018-12-13T07:38:30.335Z,46.17
2018-12-13T07:40:59.862Z,43.40
2018-12-13T07:43:28.625Z,40.57
2018-12-13T07:46:03.678Z,42.77
2018-12-13T07:48:37.567Z,38.30
2018-12-13T07:51:11.392Z,41.57
2018-12-13T07:53:41.380Z,42.80
2018-12-13T07:56:15.183Z,38.47
2018-12-13T07:58:45.762Z,42.47
2018-12-13T08:01:18.131Z,46.10
2018-12-13T08:06:39.353Z,38.93
2018-12-13T08:09:13.585Z,44.03
2018-12-13T08:11:44.143Z,41.93
2018-12-13T08:14:25.635Z,37.00
2018-12-13T08:17:00.959Z,40.73
2018-12-13T08:19:34.536Z,39.30
2018-12-13T08:22:03.333Z,36.03
2018-12-13T08:24:33.758Z,35.77
2018-12-13T08:27:03.877Z,35.80
2018-12-13T08:29:38.911Z,37.10
2018-12-13T08:32:07.323Z,34.30
2018-12-13T08:34:35.708Z,32.00
2018-12-13T08:37:04.197Z,31.57
2018-12-13T08:39:34.723Z,33.20
2018-12-13T08:42:03.338Z,31.80
2018-12-13T08:44:31.824Z,31.10
2018-12-13T08:47:00.099Z,30.77
2018-12-13T08:49:28.528Z,28.60
2018-12-13T08:51:58.600Z,32.60
2018-12-13T08:54:27.818Z,30.50
2018-12-13T08:56:57.725Z,31.20
2018-12-13T08:59:26.830Z,32.13
2018-12-13T09:01:57.062Z,29.00
2018-12-13T09:04:26.488Z,29.43
2018-12-13T09:06:59.097Z,28.43
2018-12-13T09:09:27.841Z,29.17
2018-12-13T09:11:56.839Z,27.40
2018-12-13T09:14:30.137Z,32.60
2018-12-13T09:17:00.509Z,30.03
2018-12-13T09:19:34.715Z,25.67
2018-12-13T09:22:06.395Z,30.13
2018-12-13T09:24:52.393Z,32.33
2018-12-13T09:27:21.121Z,33.13
2018-12-13T09:29:53.539Z,34.40
2018-12-13T09:32:22.589Z,31.17
2018-12-13T09:34:51.757Z,28.60
2018-12-13T09:37:21.149Z,31.27
2018-12-13T09:39:50.247Z,31.90
2018-12-13T09:42:18.976Z,34.00
2018-12-13T09:44:48.197Z,30.23
2018-12-13T09:47:28.233Z,28.80
2018-12-13T09:50:04.725Z,28.10
2018-12-13T09:52:35.729Z,29.20
2018-12-13T09:55:07.452Z,28.20
2018-12-13T09:57:38.135Z,27.80
2018-12-13T10:00:13.291Z,29.17
2018-12-13T10:02:58.804Z,28.23
2018-12-13T10:05:29.355Z,31.60
2018-12-13T10:08:00.448Z,33.90
2018-12-13T10:10:32.935Z,31.60
2018-12-13T10:13:02.120Z,29.07
2018-12-13T10:15:32.450Z,30.67
2018-12-13T10:18:05.437Z,29.30
2018-12-13T10:20:39.449Z,31.67
2018-12-13T10:23:07.769Z,29.97
2018-12-13T10:25:36.023Z,35.30
2018-12-13T10:28:04.315Z,31.80
2018-12-13T10:30:32.676Z,30.53
2018-12-13T10:33:00.854Z,31.13
2018-12-13T10:35:29.203Z,35.07
2018-12-13T10:37:57.524Z,33.20
2018-12-13T10:40:25.816Z,31.40
2018-12-13T10:42:54.199Z,32.70
2018-12-13T10:45:22.396Z,26.43
2018-12-13T10:47:50.639Z,27.93
2018-12-13T10:50:18.953Z,21.87
2018-12-13T10:52:47.245Z,22.57
2018-12-13T10:55:15.569Z,25.67
2018-12-13T10:57:43.883Z,23.60
2018-12-13T11:00:17.534Z,25.63
2018-12-13T11:02:59.128Z,22.07
2018-12-13T11:05:27.404Z,25.80
2018-12-13T11:07:55.595Z,24.27
2018-12-13T11:10:25.485Z,24.13
2018-12-13T11:12:54.280Z,21.03
2018-12-13T11:15:22.517Z,24.43
2018-12-13T11:17:50.811Z,24.30
2018-12-13T11:20:18.962Z,22.30
2018-12-13T11:22:47.194Z,22.23
2018-12-13T11:25:15.416Z,26.47
2018-12-13T11:29:56.954Z,23.83
2018-12-13T11:32:25.383Z,28.90
2018-12-13T11:34:53.703Z,23.17
2018-12-13T11:37:21.946Z,26.23
2018-12-13T11:39:50.201Z,21.27
2018-12-13T11:42:18.437Z,23.43
2018-12-13T11:44:46.697Z,20.83
2018-12-13T11:47:14.975Z,21.90
2018-12-13T11:49:43.146Z,23.00
2018-12-13T11:52:11.450Z,19.43
2018-12-13T11:54:43.252Z,21.10
2018-12-13T11:57:12.160Z,25.00
2018-12-13T11:59:40.702Z,21.70
2018-12-13T12:02:08.973Z,22.77
2018-12-13T12:04:37.250Z,24.50
2018-12-13T12:07:05.639Z,16.87
2018-12-13T12:09:33.979Z,18.50
2018-12-13T12:12:02.210Z,17.20
2018-12-13T12:14:30.551Z,18.37
2018-12-13T12:16:58.881Z,18.00
2018-12-13T12:19:27.227Z,19.13
2018-12-13T12:21:55.582Z,18.73
2018-12-13T12:24:23.995Z,21.57
2018-12-13T12:26:52.199Z,17.77
2018-12-13T12:29:20.429Z,19.50
2018-12-13T12:31:48.691Z,17.77
2018-12-13T12:34:16.889Z,19.63
2018-12-13T12:36:45.244Z,16.50
2018-12-13T12:39:18.595Z,19.67
2018-12-13T12:41:43.871Z,23.00
2018-12-13T12:44:12.108Z,22.33
2018-12-13T12:46:40.321Z,19.83
2018-12-13T12:49:08.578Z,24.60
2018-12-13T12:51:36.824Z,25.30
2018-12-13T12:54:05.014Z,22.77
2018-12-13T12:56:33.376Z,24.10
2018-12-13T12:59:01.732Z,27.17
2018-12-13T13:01:30.102Z,24.40
2018-12-13T13:03:58.470Z,28.00
2018-12-13T13:06:26.782Z,28.70
2018-12-13T13:08:55.148Z,30.90
2018-12-13T13:11:23.326Z,28.70
2018-12-13T13:13:51.530Z,28.63
2018-12-13T13:16:19.924Z,34.00
2018-12-13T13:18:48.360Z,31.20
2018-12-13T13:21:16.674Z,33.40
2018-12-13T13:23:44.994Z,29.43
2018-12-13T13:26:13.326Z,29.80
2018-12-13T13:28:41.554Z,31.43
2018-12-13T13:31:09.853Z,32.73
2018-12-13T13:33:38.122Z,29.90
2018-12-13T13:36:06.601Z,32.20
2018-12-13T13:38:34.933Z,33.40
2018-12-13T13:41:03.255Z,30.43
2018-12-13T13:43:31.677Z,29.00
2018-12-13T13:46:00.029Z,32.60
2018-12-13T13:48:28.292Z,28.60
2018-12-13T13:50:56.507Z,29.07
2018-12-13T13:53:24.809Z,33.30
2018-12-13T13:55:53.183Z,31.03
2018-12-13T13:58:21.479Z,33.83
2018-12-13T14:00:49.867Z,36.63
2018-12-13T14:03:18.145Z,36.27
2018-12-13T14:05:46.374Z,34.30
2018-12-13T14:08:14.681Z,34.20
2018-12-13T14:10:42.999Z,30.50
2018-12-13T14:13:11.237Z,31.20
2018-12-13T14:15:39.509Z,30.00
2018-12-13T14:18:07.779Z,30.20
2018-12-13T14:20:35.983Z,33.40
2018-12-13T14:23:04.558Z,32.00
2018-12-13T14:25:32.813Z,36.77
2018-12-13T14:28:01.050Z,30.03
2018-12-13T14:30:29.970Z,34.40
2018-12-13T14:32:58.322Z,36.03
2018-12-13T14:35:26.533Z,34.03
2018-12-13T14:37:54.854Z,29.07
2018-12-13T14:40:23.259Z,25.60
2018-12-13T14:42:51.455Z,27.60
2018-12-13T14:45:19.866Z,25.97
2018-12-13T14:47:48.064Z,25.30
2018-12-13T14:50:16.260Z,24.83
2018-12-13T14:52:44.598Z,28.90
2018-12-13T14:55:12.905Z,28.47
2018-12-13T14:57:41.172Z,26.20
2018-12-13T15:00:11.655Z,32.83
2018-12-13T15:02:39.882Z,28.57
2018-12-13T15:05:08.344Z,27.20
2018-12-13T15:07:36.606Z,24.33
2018-12-13T15:10:05.368Z,25.77
2018-12-13T15:12:33.700Z,30.80
2018-12-13T15:15:02.026Z,28.50
2018-12-13T15:17:30.256Z,25.20
2018-12-13T15:19:58.583Z,23.67
2018-12-13T15:22:26.883Z,26.70
2018-12-13T15:24:55.129Z,27.40
2018-12-13T15:27:23.471Z,23.90
2018-12-13T15:29:51.744Z,27.33
2018-12-13T15:32:20.033Z,27.77
2018-12-13T15:34:48.444Z,20.57
2018-12-13T15:37:16.655Z,24.67
2018-12-13T15:39:45.061Z,29.77
2018-12-13T15:42:13.549Z,25.07
2018-12-13T15:44:43.739Z,26.80
2018-12-13T15:47:12.159Z,28.13
2018-12-13T15:49:40.783Z,23.33
2018-12-13T15:52:09.107Z,25.23
2018-12-13T15:54:37.442Z,29.63
2018-12-13T15:57:05.758Z,33.53
2018-12-13T15:59:33.948Z,28.63
2018-12-13T16:02:02.220Z,29.23
2018-12-13T16:04:30.451Z,30.13
2018-12-13T16:06:58.928Z,34.70
2018-12-13T16:09:27.103Z,33.57
2018-12-13T16:11:55.371Z,36.77
2018-12-13T16:14:23.697Z,33.17
2018-12-13T16:16:51.916Z,30.20
2018-12-13T16:19:20.174Z,30.63
2018-12-13T16:21:55.425Z,37.50
2018-12-13T16:24:25.077Z,36.63
2018-12-13T16:26:54.679Z,31.40
2018-12-13T16:29:23.347Z,28.03
2018-12-13T16:31:55.019Z,32.07
2018-12-13T16:34:31.895Z,29.17
2018-12-13T16:37:01.003Z,30.90
2018-12-13T16:39:31.525Z,35.00
2018-12-13T16:42:18.082Z,27.13
2018-12-13T16:44:58.627Z,28.90
2018-12-13T16:47:33.947Z,25.93
2018-12-13T16:50:05.640Z,30.97
2018-12-13T16:52:38.411Z,27.23
2018-12-13T16:55:08.292Z,25.83
2018-12-13T16:57:37.727Z,25.13
2018-12-13T17:00:09.384Z,31.23
2018-12-13T17:02:38.259Z,24.93
2018-12-13T17:05:13.525Z,26.17
2018-12-13T17:07:42.224Z,24.63
2018-12-13T17:10:41.026Z,27.43
2018-12-13T17:13:09.748Z,27.07
2018-12-13T17:15:39.447Z,27.53
2018-12-13T17:18:08.265Z,25.23
2018-12-13T17:20:37.641Z,25.53
2018-12-13T17:23:06.977Z,25.30
2018-12-13T17:25:35.843Z,28.27
2018-12-13T17:28:05.243Z,26.40
2018-12-13T17:30:34.259Z,28.30
2018-12-13T17:33:03.647Z,28.07
2018-12-13T17:35:43.587Z,28.67
2018-12-13T17:38:18.512Z,28.30
2018-12-13T17:40:47.259Z,29.73
2018-12-13T17:43:17.643Z,28.80
2018-12-13T17:45:51.655Z,26.13
2018-12-13T17:48:20.432Z,27.00
2018-12-13T17:50:50.366Z,25.33
2018-12-13T17:53:22.457Z,24.87
2018-12-13T17:55:58.883Z,20.03
2018-12-13T17:58:35.278Z,25.10
2018-12-13T18:01:06.899Z,22.40
2018-12-13T18:03:37.433Z,23.63
2018-12-13T18:06:06.526Z,24.07
2018-12-13T18:08:35.444Z,22.17
2018-12-13T18:13:49.614Z,22.30
2018-12-13T18:16:20.458Z,24.70
2018-12-13T18:18:49.249Z,17.07
2018-12-13T18:21:18.275Z,21.00
2018-12-13T18:23:47.416Z,18.53
2018-12-13T18:26:27.055Z,20.97
2018-12-13T18:29:08.758Z,18.80
2018-12-13T18:31:41.327Z,18.93
2018-12-13T18:34:10.182Z,17.70
2018-12-13T18:36:59.354Z,15.60
2018-12-13T18:39:30.720Z,17.77
2018-12-13T18:42:34.158Z,18.30
2018-12-13T18:45:19.619Z,21.00
2018-12-13T18:47:48.685Z,20.00
2018-12-13T18:50:17.492Z,21.27
2018-12-13T18:52:46.157Z,16.80
2018-12-13T18:55:15.481Z,14.80
2018-12-13T18:57:44.490Z,15.33
2018-12-13T19:00:13.174Z,16.30
2018-12-13T19:02:42.314Z,17.20
2018-12-13T19:05:28.860Z,15.13
2018-12-13T19:08:05.871Z,14.10
2018-12-13T19:10:34.942Z,18.33
2018-12-13T19:13:04.436Z,18.40
2018-12-13T19:18:34.233Z,13.50
2018-12-13T19:21:55.882Z,20.60
2018-12-13T19:28:49.547Z,17.30
2018-12-13T19:31:43.092Z,17.87
2018-12-13T19:34:21.364Z,17.40
2018-12-13T19:39:44.877Z,18.57
2018-12-13T19:42:19.910Z,18.47
2018-12-13T19:47:45.540Z,18.30
2018-12-13T19:50:32.124Z,14.77
2018-12-13T19:56:03.264Z,16.63
2018-12-13T19:58:42.528Z,15.80
2018-12-13T20:01:30.223Z,19.00
2018-12-13T20:09:55.072Z,18.77
2018-12-13T20:26:49.852Z,20.10
2018-12-13T20:29:23.122Z,22.77
2018-12-13T20:32:01.109Z,22.00
2018-12-13T20:37:22.888Z,18.73
2018-12-13T20:43:13.845Z,20.13
2018-12-13T20:45:43.608Z,23.20
2018-12-13T20:48:14.056Z,23.47
2018-12-13T20:53:29.114Z,19.90
2018-12-13T20:56:06.240Z,20.53
2018-12-13T20:58:38.828Z,19.37
2018-12-13T21:01:10.865Z,20.10
2018-12-13T21:03:54.053Z,27.63
2018-12-13T21:06:26.755Z,21.47
2018-12-13T21:09:06.005Z,20.30
2018-12-13T21:11:35.306Z,17.97
2018-12-13T21:14:04.142Z,19.50
2018-12-13T21:16:33.132Z,19.40
2018-12-13T21:19:03.106Z,23.27
2018-12-13T21:21:33.258Z,26.83
2018-12-13T21:24:02.098Z,25.17
2018-12-13T21:26:33.381Z,24.83
2018-12-13T21:29:12.078Z,23.23
2018-12-13T22:35:16.853Z,27.13
2018-12-13T22:37:45.131Z,28.60
2018-12-13T22:40:13.375Z,24.70
2018-12-13T22:42:41.593Z,25.57
2018-12-13T22:45:09.882Z,24.20
2018-12-13T22:47:38.165Z,31.83
2018-12-13T22:50:06.537Z,31.93
2018-12-13T22:52:34.806Z,29.17
2018-12-13T22:55:03.071Z,27.20
2018-12-13T22:57:31.248Z,25.40
2018-12-13T22:59:59.472Z,23.83
2018-12-13T23:02:27.794Z,24.03
2018-12-13T23:04:56.061Z,26.30
2018-12-13T23:07:24.489Z,27.70
2018-12-13T23:09:52.961Z,28.20
2018-12-13T23:12:21.210Z,27.60
2018-12-13T23:14:49.770Z,26.30
2018-12-13T23:17:18.033Z,27.63
2018-12-13T23:19:46.352Z,27.83
2018-12-13T23:22:14.583Z,26.70
2018-12-13T23:24:42.853Z,25.87
2018-12-13T23:27:11.155Z,25.13
2018-12-13T23:29:39.453Z,24.57
2018-12-13T23:32:07.726Z,25.50
2018-12-13T23:34:36.014Z,22.07
2018-12-13T23:37:04.259Z,22.10
2018-12-13T23:39:32.551Z,19.40
2018-12-13T23:42:00.777Z,22.83
2018-12-13T23:44:29.117Z,24.67
2018-12-13T23:46:57.387Z,25.00
2018-12-13T23:49:25.633Z,22.10
2018-12-13T23:51:53.839Z,21.80
2018-12-13T23:54:22.033Z,18.97
2018-12-13T23:56:50.400Z,18.97
2018-12-13T23:59:18.627Z,22.70
